Main page
METAR-TAF:

METAR-TAF

Airports :

Jacksons International Airport

Port Moresby, Papua New Guinea

latitude: 09-26S, longitude: 147-13E, elevation: 38 m

Current weather observation

The report was made 6 hours and 10 minutes ago, at 08:00 UTC
Wind 16 kt from the South/Southeast
Temperature 26°C
Humidity 89%
Pressure 1010 hPa
Visibility 10 km or more
Few clouds at a height of 2000 ft
Scattered clouds at a height of 12000 ft
haze

METAR: AYPY 160800Z 15016KT 9999 HZ FEW020 SCT120 26/24 Q1010

Time: 00:10 (14:10 UTC)

Forecast

The report was made 10 hours and 5 minutes ago, at 04:05 UTC
Forecast valid from 16 at 06 UTC to 17 at 06 UTC
Wind 8 kt from the South
Visibility 10 km or more
Few clouds at a height of 2000 ft
Broken clouds at a height of 14000 ft
From 16 at 0900 UTC
Wind 6 kt from the South
Visibility 10 km or more
Scattered clouds at a height of 3500 ft
Broken clouds at a height of 14000 ft

TAF: AYPY 160405Z 1606/1706 17008KT 9999 FEW020 BKN140 FM160900 17006KT 9999 SCT035 BKN140

Weather observations and forecasts of more than 4000 airports (METAR and TAF reports).

The available stations are represented by yellow and red dots on the map.

Hover mouse over dot to see the name of the station.

Then click to see weather observations and forecasts.

To change the map : click on the green buttons with a black cross to zoom in, on the green button with a dash to zoom out, or on the green arrows for adjacent maps.


METAR-TAF: